Boston, Texas
Current Conditions -  °F | °C
As of 7:32 AM on Thursday 18 Dec 2014 (Local Time) from KTXK Reporting Station
Overcast Overcast  
Wind Chill: 40°   Ceiling: 600
Heat Index: 40°   Visibility: 8mi
Dew Point: 39°   Wind: 3mph
Humidity: 97%   Direction: 100°E
Pressure: 30.18"   Gusts: NA
Location:  33.4799°N, 94.4582°W
Report Text: KTXK 181332Z 10003KT 8SM BKN006 OVC021 04/04 A3018 RMK AO2 T00440039
Loading
Personal Weather Stations






























Interactive Weather Map New forecast layout! Learn more

10-Day Weather Forecast

Advertisements
Track Severe Weather on mobile